Time;durP1;ratioP1;P1;durP2;ratioP2;P2;SDS_P1;SDS_P2;PMS_P1;PMS_P2;Temp;Humidity;BMP_temperature;BMP_pressure;BME280_temperature;BME280_humidity;BME280_pressure;Samples;Min_cycle;Max_cycle;Signal;HPM_P1;HPM_P2
2022/01/30 00:01:35;;;;;;;22.17;3.97;;;;;;;7.29;69.85;102647.69;4996366;28;20033;-60
2022/01/30 00:04:00;;;;;;;25.95;4.43;;;;;;;7.27;69.58;102647.59;5014107;28;20026;-60
2022/01/30 00:06:25;;;;;;;26.80;4.38;;;;;;;7.23;69.92;102650.88;5014003;28;20482;-60
2022/01/30 00:08:51;;;;;;;24.30;4.28;;;;;;;7.17;69.62;102653.22;5013854;28;20115;-60
2022/01/30 00:11:21;;;;;;;29.50;4.93;;;;;;;7.15;68.80;102664.44;5013989;28;20531;-60
2022/01/30 00:13:47;;;;;;;20.80;3.47;;;;;;;7.13;69.74;102653.84;5013788;28;20480;-60
2022/01/30 00:16:15;;;;;;;23.00;4.20;;;;;;;7.10;69.34;102652.78;5013853;28;20068;-61
2022/01/30 00:21:35;;;;;;;18.85;3.78;;;;;;;7.13;69.70;102652.97;5014064;28;20030;-60
2022/01/30 00:24:19;;;;;;;23.80;4.95;;;;;;;7.11;69.78;102658.16;5013816;28;20054;-60
2022/01/30 00:26:47;;;;;;;23.38;3.72;;;;;;;7.13;69.83;102659.13;5013559;28;20034;-60
2022/01/30 00:29:12;;;;;;;17.75;3.55;;;;;;;7.12;69.70;102648.53;5013648;28;20037;-60
2022/01/30 00:31:39;;;;;;;17.60;3.92;;;;;;;7.12;68.82;102662.56;5013719;28;20036;-60
2022/01/30 00:34:04;;;;;;;24.08;4.20;;;;;;;7.14;69.51;102660.91;5013575;28;20459;-60
2022/01/30 00:36:31;;;;;;;26.08;3.97;;;;;;;7.16;68.92;102666.28;5013530;28;20065;-60
2022/01/30 00:39:00;;;;;;;23.90;3.83;;;;;;;7.15;69.77;102668.00;5013584;28;20033;-60
2022/01/30 00:41:26;;;;;;;23.35;4.20;;;;;;;7.11;69.16;102665.09;5013543;28;20168;-60
2022/01/30 00:43:52;;;;;;;22.95;4.43;;;;;;;7.07;68.53;102663.16;5013689;28;20025;-60
2022/01/30 00:46:18;;;;;;;19.45;3.78;;;;;;;7.04;69.27;102666.50;5013679;28;20490;-59
2022/01/30 00:48:43;;;;;;;21.80;3.33;;;;;;;7.01;69.40;102661.06;5013513;28;20026;-60
2022/01/30 00:51:09;;;;;;;21.67;4.03;;;;;;;6.95;69.71;102661.66;5013346;28;20084;-60
2022/01/30 00:53:34;;;;;;;23.98;3.67;;;;;;;6.92;69.87;102665.84;5013447;28;20034;-60
2022/01/30 00:55:59;;;;;;;29.35;4.50;;;;;;;6.88;69.17;102666.50;5013406;28;20112;-60
2022/01/30 00:58:25;;;;;;;29.75;5.10;;;;;;;6.86;69.89;102666.41;5013148;28;20026;-60
2022/01/30 01:00:50;;;;;;;21.52;3.88;;;;;;;6.87;69.77;102673.47;5013373;28;20045;-60
2022/01/30 01:03:17;;;;;;;21.58;3.65;;;;;;;6.83;70.12;102674.13;5013521;28;20026;-60
2022/01/30 01:05:43;;;;;;;23.40;4.30;;;;;;;6.82;70.02;102680.19;5013238;28;20112;-60
2022/01/30 01:08:20;;;;;;;25.70;4.13;;;;;;;6.81;70.83;102680.09;5013442;28;20113;-60
2022/01/30 01:10:59;;;;;;;22.55;4.78;;;;;;;6.82;70.62;102681.94;5013050;28;20034;-60
2022/01/30 01:24:44;;;;;;;20.05;3.97;;;;;;;6.76;70.06;102683.38;4933648;29;20039;-60
2022/01/30 01:27:09;;;;;;;24.08;4.00;;;;;;;6.75;69.85;102681.56;4933545;29;20047;-60
2022/01/30 01:29:35;;;;;;;27.10;4.30;;;;;;;6.76;70.23;102675.50;4933487;29;20115;-60
2022/01/30 01:32:00;;;;;;;25.83;4.05;;;;;;;6.75;69.76;102686.81;4933390;29;20098;-60
2022/01/30 01:34:32;;;;;;;25.48;4.03;;;;;;;6.73;70.46;102696.34;4933191;29;20445;-60
2022/01/30 01:36:57;;;;;;;23.50;3.87;;;;;;;6.72;70.07;102705.06;4934128;29;20554;-60
2022/01/30 01:39:23;;;;;;;22.10;3.55;;;;;;;6.69;70.57;102702.25;4937310;29;20107;-60
2022/01/30 01:41:49;;;;;;;27.10;4.18;;;;;;;6.75;72.14;102702.59;4937127;29;20040;-60
2022/01/30 01:44:45;;;;;;;18.98;4.00;;;;;;;6.76;72.25;102701.75;4937243;29;20503;-60
2022/01/30 01:47:12;;;;;;;18.63;3.25;;;;;;;6.77;70.65;102692.19;4937303;29;20031;-60
2022/01/30 01:49:39;;;;;;;28.98;4.72;;;;;;;6.80;71.22;102697.59;4951270;28;20086;-60
2022/01/30 01:54:44;;;;;;;23.65;3.72;;;;;;;6.72;70.39;102704.13;4975466;28;20042;-60
2022/01/30 01:57:09;;;;;;;19.33;3.85;;;;;;;6.69;71.13;102702.25;4975282;28;20030;-60
2022/01/30 01:59:35;;;;;;;22.80;4.05;;;;;;;6.64;71.37;102706.34;4975376;28;20038;-60
2022/01/30 02:02:02;;;;;;;15.38;3.17;;;;;;;6.58;71.11;102711.25;5000791;28;20475;-60
2022/01/30 02:04:28;;;;;;;21.50;3.85;;;;;;;6.56;70.99;102705.00;5016386;28;20030;-60
2022/01/30 02:07:06;;;;;;;20.58;3.95;;;;;;;6.57;70.55;102705.91;5016484;28;20045;-60
2022/01/30 02:09:33;;;;;;;20.33;3.60;;;;;;;6.60;71.20;102699.13;5016245;28;20529;-60
2022/01/30 02:11:59;;;;;;;20.90;3.67;;;;;;;6.57;72.04;102693.69;5016205;28;20391;-60
2022/01/30 02:14:36;;;;;;;28.92;4.25;;;;;;;6.52;71.20;102684.66;5016126;28;20033;-60
2022/01/30 02:28:08;;;;;;;28.85;4.22;;;;;;;6.35;71.28;102688.03;4955623;29;20035;-60
2022/01/30 02:30:37;;;;;;;22.17;3.72;;;;;;;6.32;72.26;102682.59;4955229;29;20481;-60
2022/01/30 02:33:03;;;;;;;22.35;3.95;;;;;;;6.30;71.66;102690.41;4955445;29;20504;-60
2022/01/30 02:35:29;;;;;;;15.23;3.50;;;;;;;6.32;72.03;102696.63;4955235;29;20078;-60
2022/01/30 02:37:57;;;;;;;25.52;3.60;;;;;;;6.31;72.21;102697.44;4955334;29;20389;-60
2022/01/30 02:40:22;;;;;;;27.13;4.38;;;;;;;6.32;72.47;102694.00;4955307;29;20043;-60
2022/01/30 02:42:51;;;;;;;22.38;3.50;;;;;;;6.36;71.95;102695.97;4955325;29;20499;-60
2022/01/30 02:45:18;;;;;;;26.05;3.88;;;;;;;6.32;72.15;102691.38;4955188;29;20050;-60
2022/01/30 02:48:13;;;;;;;18.48;3.72;;;;;;;6.32;73.07;102690.47;4954834;28;20041;-60
2022/01/30 02:50:56;;;;;;;21.80;4.05;;;;;;;6.36;72.48;102687.22;4954903;29;20043;-59
2022/01/30 02:53:29;;;;;;;21.63;4.25;;;;;;;6.34;71.92;102676.63;4955022;29;20039;-59
2022/01/30 02:55:56;;;;;;;28.35;3.90;;;;;;;6.32;72.14;102685.22;4954925;29;20039;-60
2022/01/30 02:58:21;;;;;;;27.05;3.70;;;;;;;6.30;72.66;102689.50;4955015;29;20047;-60
2022/01/30 03:00:47;;;;;;;24.73;3.40;;;;;;;6.28;72.41;102698.16;4954940;29;20058;-60
2022/01/30 03:03:12;;;;;;;22.23;3.55;;;;;;;6.23;72.50;102701.34;4955052;29;20432;-60
2022/01/30 03:05:37;;;;;;;28.13;4.00;;;;;;;6.19;72.60;102709.84;5000275;28;20037;-60
2022/01/30 03:08:03;;;;;;;24.17;3.80;;;;;;;6.15;72.34;102708.75;5015094;28;20046;-60
2022/01/30 03:10:28;;;;;;;16.25;3.50;;;;;;;6.12;73.26;102712.91;5015214;28;20069;-60
2022/01/30 03:12:53;;;;;;;26.10;3.80;;;;;;;6.11;73.80;102712.03;5015030;28;20183;-60
2022/01/30 03:15:19;;;;;;;24.25;3.97;;;;;;;6.12;73.02;102720.78;5014988;28;20463;-60
2022/01/30 03:17:44;;;;;;;30.00;4.53;;;;;;;6.10;73.10;102722.44;5015186;28;20037;-60
2022/01/30 03:20:10;;;;;;;20.45;3.78;;;;;;;6.12;73.17;102728.66;5015009;28;20033;-59
2022/01/30 03:22:36;;;;;;;20.00;3.42;;;;;;;6.06;73.08;102731.84;5014848;28;20029;-60
2022/01/30 03:25:02;;;;;;;22.33;4.05;;;;;;;6.03;73.56;102735.19;5015173;28;20044;-60
2022/01/30 03:27:29;;;;;;;22.88;3.25;;;;;;;6.01;73.96;102736.81;5014682;28;20097;-60
2022/01/30 03:30:03;;;;;;;25.95;4.13;;;;;;;6.02;73.87;102736.00;4997408;28;20456;-60
2022/01/30 03:32:28;;;;;;;23.35;4.40;;;;;;;6.05;74.04;102747.50;5014748;28;20030;-60
2022/01/30 03:34:54;;;;;;;23.50;3.53;;;;;;;6.06;73.93;102744.06;5014586;28;20040;-59
2022/01/30 03:37:19;;;;;;;20.63;4.53;;;;;;;6.08;74.19;102752.91;5014636;28;20054;-60
2022/01/30 03:39:44;;;;;;;28.27;4.18;;;;;;;6.06;74.38;102754.56;5014715;28;20022;-60
2022/01/30 03:42:10;;;;;;;23.35;3.30;;;;;;;6.01;73.97;102757.81;5014360;28;20475;-60
2022/01/30 03:44:36;;;;;;;15.38;3.28;;;;;;;5.97;74.12;102768.94;5014547;28;20085;-60
2022/01/30 03:47:01;;;;;;;24.05;3.70;;;;;;;5.96;74.87;102764.53;5014483;28;20386;-60
2022/01/30 03:49:26;;;;;;;24.75;3.65;;;;;;;5.94;74.63;102770.47;5014498;28;20026;-60
2022/01/30 03:51:52;;;;;;;19.23;3.42;;;;;;;6.01;75.63;102772.66;5014297;28;20029;-60
2022/01/30 03:54:17;;;;;;;22.45;4.13;;;;;;;5.97;73.95;102776.81;5014270;28;20061;-60
2022/01/30 03:56:42;;;;;;;19.27;3.90;;;;;;;5.96;73.72;102779.34;5014422;28;20117;-60
2022/01/30 03:59:08;;;;;;;25.73;4.05;;;;;;;5.99;73.72;102782.16;5014103;28;20041;-60
2022/01/30 04:01:34;;;;;;;20.40;3.40;;;;;;;6.01;73.76;102788.41;5013919;28;20026;-60
2022/01/30 04:03:59;;;;;;;20.42;3.40;;;;;;;6.03;73.29;102786.75;5014198;28;20030;-60
2022/01/30 04:06:25;;;;;;;18.63;3.17;;;;;;;6.10;73.03;102788.97;5014175;28;20033;-60
2022/01/30 04:08:51;;;;;;;30.80;3.83;;;;;;;6.16;72.66;102784.06;5013947;28;20026;-59
2022/01/30 04:11:16;;;;;;;22.73;3.78;;;;;;;6.15;72.72;102791.84;5013983;28;20021;-60
2022/01/30 04:13:42;;;;;;;20.55;3.50;;;;;;;6.13;72.20;102798.75;5013819;28;20076;-60
2022/01/30 04:16:08;;;;;;;15.15;3.28;;;;;;;6.17;72.81;102799.03;5013980;28;20025;-60
2022/01/30 04:18:33;;;;;;;24.33;3.97;;;;;;;6.16;72.71;102801.53;5014214;28;20025;-60
2022/01/30 04:20:59;;;;;;;23.50;3.50;;;;;;;6.20;72.54;102799.19;5013946;28;20026;-59
2022/01/30 04:23:24;;;;;;;24.17;3.80;;;;;;;6.20;72.93;102806.16;5013797;28;20026;-60
2022/01/30 04:25:50;;;;;;;22.98;4.18;;;;;;;6.16;73.41;102809.41;5013837;28;20024;-59
2022/01/30 04:28:15;;;;;;;26.95;4.05;;;;;;;6.10;74.15;102804.69;5013956;28;20022;-60
2022/01/30 04:30:41;;;;;;;17.35;3.17;;;;;;;6.07;74.82;102811.47;5013664;28;20034;-60
2022/01/30 04:33:07;;;;;;;26.13;3.63;;;;;;;6.06;74.45;102807.97;5013963;28;20100;-60
2022/01/30 04:35:32;;;;;;;24.80;4.20;;;;;;;6.05;74.50;102802.63;5013576;28;20488;-60
2022/01/30 04:55:04;;;;;;;27.20;4.00;;;;;;;6.15;75.74;102811.13;5013619;28;20403;-60
2022/01/30 05:02:36;;;;;;;21.20;3.95;;;;;;;6.11;73.88;102819.63;5013567;28;20045;-60
2022/01/30 05:05:36;;;;;;;21.63;3.35;;;;;;;6.01;73.66;102823.44;5013062;28;20034;-60
2022/01/30 05:08:01;;;;;;;15.20;2.70;;;;;;;6.01;74.28;102831.28;5013017;28;20049;-60
2022/01/30 05:10:27;;;;;;;22.52;3.58;;;;;;;5.98;73.85;102827.56;5013241;28;20475;-60
2022/01/30 05:12:56;;;;;;;21.65;3.65;;;;;;;5.95;73.76;102840.50;5015752;28;20022;-60
2022/01/30 05:15:22;;;;;;;15.25;3.55;;;;;;;5.93;73.55;102847.38;5017449;28;20036;-60
2022/01/30 05:17:47;;;;;;;23.15;3.55;;;;;;;5.92;74.01;102841.22;5017171;28;20483;-60
2022/01/30 05:20:13;;;;;;;14.68;3.10;;;;;;;5.89;74.11;102851.50;5017652;28;20108;-60
2022/01/30 05:22:39;;;;;;;18.20;3.28;;;;;;;5.90;74.58;102844.53;5017090;28;20028;-60
2022/01/30 05:25:06;;;;;;;20.80;3.60;;;;;;;5.90;73.87;102849.78;5017089;28;20030;-60
2022/01/30 05:27:31;;;;;;;18.70;3.25;;;;;;;5.91;74.30;102847.28;5017081;28;20029;-60
2022/01/30 05:29:57;;;;;;;23.35;3.60;;;;;;;5.86;74.03;102840.81;5016945;28;20093;-60
2022/01/30 05:32:22;;;;;;;20.55;3.40;;;;;;;5.83;74.07;102839.72;5017144;28;20064;-60
2022/01/30 05:34:48;;;;;;;14.32;3.20;;;;;;;5.85;74.74;102845.97;5016872;28;20056;-60
2022/01/30 05:37:17;;;;;;;18.65;3.78;;;;;;;5.83;73.87;102845.88;5016929;28;20133;-60
2022/01/30 05:39:42;;;;;;;20.27;3.78;;;;;;;5.81;73.73;102851.84;5016742;28;20033;-60
2022/01/30 05:42:09;;;;;;;19.08;3.20;;;;;;;5.80;73.99;102848.31;5016817;28;20025;-60
2022/01/30 05:45:15;;;;;;;21.13;3.50;;;;;;;5.74;73.44;102850.56;5016670;28;20064;-60
2022/01/30 05:47:32;;;;;;;17.63;2.80;;;;;;;5.71;74.25;102847.72;5013584;28;20390;-59
2022/01/30 05:49:58;;;;;;;17.02;3.35;;;;;;;5.68;74.12;102845.81;5016666;28;20030;-59
2022/01/30 05:52:24;;;;;;;19.15;3.63;;;;;;;5.65;74.31;102852.56;5016424;28;20052;-60
2022/01/30 05:54:49;;;;;;;18.55;3.42;;;;;;;5.62;74.85;102850.69;5016670;28;20030;-59
2022/01/30 05:57:15;;;;;;;19.02;3.55;;;;;;;5.58;73.95;102860.88;5016474;28;20033;-59
2022/01/30 05:59:40;;;;;;;18.85;3.80;;;;;;;5.55;73.98;102860.69;5016657;28;20029;-60
2022/01/30 06:02:05;;;;;;;21.08;3.30;;;;;;;5.45;74.50;102873.22;5016485;28;20025;-60
2022/01/30 06:04:31;;;;;;;14.10;2.90;;;;;;;5.40;74.46;102877.25;5016412;28;20033;-60
2022/01/30 06:06:58;;;;;;;20.48;3.28;;;;;;;5.39;74.79;102882.38;5016290;28;20030;-60
2022/01/30 06:09:23;;;;;;;12.82;3.00;;;;;;;5.41;74.11;102872.94;4998675;28;20079;-60
2022/01/30 06:11:50;;;;;;;14.45;3.00;;;;;;;5.43;73.76;102879.16;5016451;28;20029;-60
2022/01/30 06:14:22;;;;;;;17.02;3.05;;;;;;;5.45;74.35;102880.19;5016075;28;20030;-60
2022/01/30 06:16:49;;;;;;;20.55;3.35;;;;;;;5.46;73.75;102888.13;5016268;28;20022;-60
2022/01/30 06:19:18;;;;;;;13.55;2.50;;;;;;;5.46;74.10;102879.38;5016218;28;20033;-60
2022/01/30 06:21:43;;;;;;;17.95;3.10;;;;;;;5.40;73.89;102877.25;5015987;28;20033;-60
2022/01/30 06:24:09;;;;;;;11.60;2.50;;;;;;;5.38;74.68;102881.47;5015711;28;20026;-60
2022/01/30 06:26:34;;;;;;;19.63;3.33;;;;;;;5.36;73.68;102876.97;5015937;28;20053;-60
2022/01/30 06:28:59;;;;;;;20.60;3.30;;;;;;;5.31;73.33;102867.88;5015910;28;20022;-59
2022/01/30 06:31:26;;;;;;;18.45;3.10;;;;;;;5.35;73.80;102870.78;5015792;28;20120;-59
2022/01/30 06:33:52;;;;;;;16.25;3.08;;;;;;;5.37;73.25;102873.53;5016043;28;20109;-59
2022/01/30 06:36:17;;;;;;;15.98;3.05;;;;;;;5.42;73.48;102874.72;5015496;28;20499;-60
2022/01/30 06:38:42;;;;;;;15.73;3.00;;;;;;;5.45;74.04;102882.81;5015919;28;20076;-60
2022/01/30 06:41:08;;;;;;;18.92;2.85;;;;;;;5.45;73.15;102880.19;5015684;28;20101;-60
2022/01/30 06:43:33;;;;;;;23.00;3.00;;;;;;;5.47;72.96;102886.41;5015703;28;20030;-60
2022/01/30 06:45:58;;;;;;;17.38;2.90;;;;;;;5.50;73.37;102887.53;5015623;28;20025;-60
2022/01/30 06:48:24;;;;;;;17.55;2.85;;;;;;;5.58;73.39;102880.16;5015763;28;20542;-60
2022/01/30 06:50:49;;;;;;;15.20;3.13;;;;;;;5.58;72.72;102898.50;5015482;28;20050;-60
2022/01/30 06:53:15;;;;;;;19.08;2.90;;;;;;;5.61;72.92;102898.72;5015332;28;20534;-60
2022/01/30 06:55:42;;;;;;;14.82;2.78;;;;;;;5.65;73.46;102895.47;5015565;28;20418;-60
2022/01/30 06:58:12;;;;;;;14.52;2.78;;;;;;;5.68;72.66;102906.13;5015439;28;20030;-60
2022/01/30 07:00:38;;;;;;;15.43;2.70;;;;;;;5.70;72.30;102901.91;5015358;28;20064;-60
2022/01/30 07:03:04;;;;;;;14.18;2.85;;;;;;;5.70;72.29;102914.13;5015341;28;20026;-59
2022/01/30 07:05:29;;;;;;;12.65;2.85;;;;;;;5.67;72.59;102911.31;5015368;28;20033;-59
2022/01/30 07:07:55;;;;;;;19.05;3.33;;;;;;;5.65;72.28;102919.09;5015097;28;20494;-60
2022/01/30 07:10:20;;;;;;;17.60;3.00;;;;;;;5.65;72.12;102929.56;5015038;28;20391;-60
2022/01/30 07:12:46;;;;;;;19.13;2.90;;;;;;;5.65;72.74;102918.16;5015168;28;20088;-60
2022/01/30 07:15:12;;;;;;;12.55;2.70;;;;;;;5.62;72.47;102925.84;5015082;28;20091;-59
2022/01/30 07:17:38;;;;;;;18.27;2.80;;;;;;;5.59;71.95;102921.28;5015048;28;20027;-59
2022/01/30 07:20:05;;;;;;;16.90;2.80;;;;;;;5.57;71.55;102929.84;5015111;28;20108;-59
2022/01/30 07:22:30;;;;;;;11.10;2.40;;;;;;;5.54;72.35;102933.22;5014712;28;20018;-60
2022/01/30 07:24:57;;;;;;;12.75;2.70;;;;;;;5.56;72.34;102928.06;5014897;28;20030;-60
2022/01/30 07:27:23;;;;;;;16.52;2.90;;;;;;;5.57;72.73;102932.47;5014900;28;20036;-59
2022/01/30 07:29:48;;;;;;;15.73;2.80;;;;;;;5.55;72.58;102932.38;4997202;28;20030;-60
2022/01/30 07:32:14;;;;;;;13.80;2.88;;;;;;;5.54;72.78;102927.97;5014703;28;20025;-60
2022/01/30 07:34:39;;;;;;;17.95;2.88;;;;;;;5.57;72.20;102933.41;5014024;28;20022;-60
2022/01/30 07:37:05;;;;;;;11.95;2.70;;;;;;;5.58;72.28;102937.84;5014519;28;20050;-59
2022/01/30 07:39:31;;;;;;;11.90;2.70;;;;;;;5.57;71.18;102938.66;5014568;28;20029;-60
2022/01/30 07:42:00;;;;;;;19.38;3.13;;;;;;;5.55;71.15;102949.84;5014675;28;20029;-60
2022/01/30 07:44:25;;;;;;;14.25;3.30;;;;;;;5.53;71.08;102958.53;5014552;28;20033;-59
2022/01/30 07:46:50;;;;;;;13.85;2.97;;;;;;;5.52;71.10;102961.03;5014515;28;20383;-59
2022/01/30 07:49:16;;;;;;;20.70;3.20;;;;;;;5.52;70.87;102961.03;5014448;28;20030;-60
2022/01/30 07:51:41;;;;;;;14.30;2.53;;;;;;;5.52;71.25;102961.03;5014386;28;20129;-60
2022/01/30 07:54:07;;;;;;;20.88;3.25;;;;;;;5.53;71.13;102974.25;5014324;28;20018;-60
2022/01/30 07:56:32;;;;;;;12.43;2.80;;;;;;;5.57;71.54;102967.50;5014415;28;20028;-60
2022/01/30 07:58:58;;;;;;;14.95;3.08;;;;;;;5.60;71.14;102964.16;5014412;28;20018;-60
2022/01/30 08:01:23;;;;;;;21.75;3.40;;;;;;;5.67;71.49;102961.13;5014267;28;20089;-60
2022/01/30 08:03:49;;;;;;;14.10;2.78;;;;;;;5.75;70.78;102962.53;5014202;28;20022;-60
2022/01/30 08:06:14;;;;;;;18.20;3.50;;;;;;;5.83;70.23;102965.66;5014238;28;20084;-59
2022/01/30 08:08:39;;;;;;;17.83;3.65;;;;;;;5.87;69.84;102973.81;5013894;28;20026;-60
2022/01/30 08:11:08;;;;;;;18.92;3.15;;;;;;;5.98;70.27;102970.19;5013865;28;20068;-60
2022/01/30 08:13:33;;;;;;;18.27;3.30;;;;;;;6.12;70.17;102965.78;5014068;28;20034;-60
2022/01/30 08:15:58;;;;;;;19.60;3.35;;;;;;;6.21;69.82;102965.47;5014060;28;20029;-60
2022/01/30 08:18:24;;;;;;;16.83;3.03;;;;;;;6.33;69.39;102976.72;5013973;28;20034;-60
2022/01/30 08:20:49;;;;;;;16.65;3.10;;;;;;;6.44;69.14;102978.31;5013943;28;20045;-59
2022/01/30 08:23:17;;;;;;;20.50;4.07;;;;;;;6.56;68.60;102977.28;5013801;28;20029;-60
2022/01/30 08:25:43;;;;;;;18.55;3.35;;;;;;;6.73;69.12;102980.09;5013731;28;20041;-60
2022/01/30 08:28:08;;;;;;;15.10;3.30;;;;;;;6.95;69.28;102986.66;5014031;28;20030;-60
2022/01/30 08:30:34;;;;;;;15.43;2.92;;;;;;;7.13;68.13;102982.47;5013606;28;20033;-60
2022/01/30 08:33:00;;;;;;;21.08;3.38;;;;;;;7.35;67.20;102978.47;5014036;28;20026;-59
2022/01/30 08:35:26;;;;;;;16.38;3.35;;;;;;;7.56;66.06;102984.97;5013742;28;20041;-60
2022/01/30 08:37:51;;;;;;;15.93;3.08;;;;;;;7.61;66.12;102980.88;5013546;28;20029;-60
2022/01/30 08:40:21;;;;;;;15.40;2.95;;;;;;;7.61;65.47;102982.59;5013515;28;20026;-60
2022/01/30 08:42:47;;;;;;;18.10;3.40;;;;;;;7.60;65.93;102986.97;5013576;28;20026;-60
2022/01/30 08:45:15;;;;;;;17.05;3.10;;;;;;;7.59;65.38;102979.00;5013510;28;20036;-60
2022/01/30 08:48:24;;;;;;;19.38;3.90;;;;;;;7.60;66.32;102981.69;5013656;28;20144;-60
2022/01/30 08:50:50;;;;;;;20.17;4.15;;;;;;;7.71;65.12;102984.97;5013260;28;20022;-60
2022/01/30 08:53:15;;;;;;;18.52;3.60;;;;;;;7.94;65.00;102984.50;5013427;28;20030;-60
2022/01/30 08:55:41;;;;;;;18.00;3.55;;;;;;;8.03;63.57;102981.47;5013485;28;20030;-60
2022/01/30 08:58:08;;;;;;;17.70;3.92;;;;;;;8.27;63.54;102998.63;5013487;28;20026;-60
2022/01/30 09:00:39;;;;;;;18.33;3.70;;;;;;;8.31;62.89;102988.25;5013547;28;20072;-60
2022/01/30 09:03:06;;;;;;;18.60;3.83;;;;;;;8.28;62.50;102989.00;5013301;28;20029;-60
2022/01/30 09:05:32;;;;;;;19.35;4.10;;;;;;;8.24;61.99;102992.28;5013460;28;20048;-60
2022/01/30 09:07:58;;;;;;;16.90;3.67;;;;;;;8.32;61.80;102990.97;5013300;28;20026;-60
2022/01/30 09:10:24;;;;;;;14.52;3.75;;;;;;;8.28;61.82;102986.38;5013220;28;20068;-60
2022/01/30 09:12:49;;;;;;;16.80;3.80;;;;;;;8.47;62.67;102993.56;5013267;28;20038;-60
2022/01/30 09:15:16;;;;;;;22.27;3.97;;;;;;;8.82;60.26;102999.78;5013079;28;20028;-60
2022/01/30 09:17:42;;;;;;;24.70;4.07;;;;;;;9.37;60.44;103000.88;5013167;28;20033;-60
2022/01/30 09:20:08;;;;;;;19.42;4.95;;;;;;;9.87;58.66;103014.78;5012993;28;20057;-60
2022/01/30 09:22:34;;;;;;;19.33;3.45;;;;;;;10.28;56.79;103017.69;5012887;28;20601;-60
2022/01/30 09:24:59;;;;;;;15.55;3.20;;;;;;;10.69;56.28;103013.38;5013131;28;20014;-60
2022/01/30 09:27:25;;;;;;;16.40;4.28;;;;;;;10.99;55.27;103016.50;5013095;28;20029;-60
2022/01/30 09:29:50;;;;;;;17.05;3.78;;;;;;;11.36;55.60;103007.50;5013081;28;20022;-60
2022/01/30 09:32:17;;;;;;;24.45;4.13;;;;;;;11.69;53.18;103008.00;5012947;28;20026;-59
2022/01/30 09:34:42;;;;;;;19.02;3.60;;;;;;;12.09;52.32;103011.38;5013058;28;20411;-60
2022/01/30 09:37:08;;;;;;;21.55;3.90;;;;;;;12.20;51.35;103010.03;5012799;28;20026;-60
2022/01/30 09:39:34;;;;;;;18.13;4.07;;;;;;;11.98;50.37;103018.88;5012829;28;20083;-60
2022/01/30 09:41:59;;;;;;;19.00;3.40;;;;;;;11.66;51.11;103022.84;5013151;28;20022;-60
2022/01/30 09:44:26;;;;;;;20.63;4.10;;;;;;;11.25;51.75;103025.56;5012912;28;20062;-60
2022/01/30 09:46:51;;;;;;;22.98;4.10;;;;;;;11.10;52.63;103027.56;5012845;28;20033;-60
2022/01/30 09:49:21;;;;;;;22.33;3.55;;;;;;;10.95;51.98;103026.88;5012910;28;20053;-60
2022/01/30 09:51:47;;;;;;;23.15;4.00;;;;;;;10.68;53.12;103031.84;5012473;28;20030;-60
2022/01/30 09:54:12;;;;;;;22.85;4.03;;;;;;;10.38;53.98;103033.97;5012720;28;20033;-60
2022/01/30 09:56:39;;;;;;;23.73;4.22;;;;;;;10.35;54.63;103041.75;5012840;28;20018;-60
2022/01/30 09:59:05;;;;;;;22.50;4.10;;;;;;;10.26;54.16;103043.13;5015259;28;20101;-60
2022/01/30 10:01:35;;;;;;;19.73;3.80;;;;;;;10.12;55.21;103038.00;5016477;28;20131;-59
2022/01/30 10:04:02;;;;;;;21.95;4.38;;;;;;;9.97;55.26;103038.16;5016542;28;20075;-60
2022/01/30 10:06:37;;;;;;;22.48;4.38;;;;;;;9.82;55.33;103038.34;5016296;28;20029;-60
2022/01/30 10:09:28;;;;;;;21.95;4.78;;;;;;;9.75;56.44;103042.38;5016492;28;20030;-60
2022/01/30 10:12:09;;;;;;;18.92;3.90;;;;;;;10.00;56.48;103051.53;5016165;28;20029;-60
2022/01/30 10:14:49;;;;;;;20.13;4.55;;;;;;;10.14;55.59;103063.66;5016449;28;20113;-59
2022/01/30 10:17:28;;;;;;;22.88;4.03;;;;;;;10.46;54.88;103062.56;5016264;28;20034;-60
2022/01/30 10:20:00;;;;;;;24.30;4.20;;;;;;;10.72;54.47;103068.16;5016170;28;20030;-61
2022/01/30 10:22:26;;;;;;;20.73;3.90;;;;;;;11.15;53.20;103063.06;5016131;28;20084;-59
2022/01/30 10:24:51;;;;;;;26.48;3.90;;;;;;;11.35;51.47;103053.34;5016074;28;20026;-60
2022/01/30 10:27:22;;;;;;;23.70;4.57;;;;;;;11.62;51.42;103052.69;5015932;28;20486;-61
2022/01/30 10:30:03;;;;;;;21.55;3.97;;;;;;;11.79;51.13;103049.00;5015940;28;20438;-60
2022/01/30 10:32:30;;;;;;;21.52;4.57;;;;;;;11.90;50.34;103060.06;5015807;28;20033;-61
2022/01/30 10:35:01;;;;;;;18.33;4.13;;;;;;;12.10;50.57;103059.13;5015661;28;20030;-61
2022/01/30 10:37:26;;;;;;;18.85;4.10;;;;;;;12.36;49.61;103057.50;5015702;28;20096;-61
2022/01/30 10:40:06;;;;;;;20.90;4.43;;;;;;;12.90;49.28;103060.44;5015648;28;20471;-61
2022/01/30 10:43:00;;;;;;;22.30;4.20;;;;;;;13.15;49.00;103059.56;5015746;28;20029;-61
2022/01/30 10:45:32;;;;;;;21.73;3.90;;;;;;;13.26;47.55;103052.91;5012082;28;20077;-60
2022/01/30 10:48:28;;;;;;;21.65;4.13;;;;;;;13.41;50.68;103056.97;5015698;28;20038;-61
2022/01/30 10:50:55;;;;;;;22.42;3.85;;;;;;;13.68;47.19;103052.56;4916937;29;20438;-61
2022/01/30 10:53:23;;;;;;;21.42;4.22;;;;;;;13.72;46.48;103051.81;4916954;29;20033;-61
2022/01/30 10:55:49;;;;;;;19.00;4.13;;;;;;;13.51;45.84;103049.34;4916978;29;20035;-61
2022/01/30 10:58:17;;;;;;;22.67;5.35;;;;;;;13.24;46.06;103048.41;4916981;29;20164;-61
2022/01/30 11:01:02;;;;;;;20.92;5.32;;;;;;;13.27;45.99;103049.44;4916805;29;20044;-61
2022/01/30 11:03:44;;;;;;;22.30;4.63;;;;;;;13.33;46.83;103054.03;4916926;29;20040;-61
2022/01/30 11:06:13;;;;;;;23.48;5.32;;;;;;;13.66;46.51;103042.72;4916852;29;20120;-63
2022/01/30 11:08:41;;;;;;;20.80;4.20;;;;;;;13.80;44.67;103037.91;4916717;29;20060;-61
2022/01/30 11:19:09;;;;;;;20.75;4.22;;;;;;;13.12;44.00;103016.97;4916859;29;20079;-62
2022/01/30 11:21:37;;;;;;;18.65;4.32;;;;;;;12.78;44.44;103014.88;4916634;29;20044;-61
2022/01/30 11:24:03;;;;;;;28.30;4.63;;;;;;;12.61;45.34;103016.00;4916220;29;20083;-60
2022/01/30 11:26:29;;;;;;;19.85;3.90;;;;;;;12.49;44.56;103022.66;4933718;28;20054;-61
2022/01/30 11:28:56;;;;;;;21.05;4.28;;;;;;;12.21;46.67;103011.84;5015062;28;20026;-60
2022/01/30 11:31:23;;;;;;;17.55;3.90;;;;;;;11.89;45.98;103011.47;5014757;28;20061;-60
2022/01/30 11:33:50;;;;;;;23.23;4.70;;;;;;;11.72;47.87;103004.56;5014785;28;20022;-60
2022/01/30 11:36:16;;;;;;;16.50;3.88;;;;;;;11.58;46.19;103009.28;5014628;28;20042;-60
2022/01/30 11:38:41;;;;;;;20.40;4.70;;;;;;;11.50;46.65;103014.25;5014731;28;20044;-61
2022/01/30 11:41:16;;;;;;;20.35;4.88;;;;;;;11.27;47.84;103015.06;5014573;28;20387;-60
2022/01/30 11:44:19;;;;;;;20.40;4.60;;;;;;;11.26;49.14;103007.94;5014587;28;20030;-60
2022/01/30 11:47:00;;;;;;;18.25;4.15;;;;;;;11.29;48.80;103014.25;5014528;28;20598;-60
2022/01/30 11:49:45;;;;;;;19.00;3.88;;;;;;;11.53;49.41;103008.22;5014331;28;20050;-60
2022/01/30 11:52:12;;;;;;;16.67;3.80;;;;;;;11.59;47.61;103005.78;5014279;28;20026;-60
2022/01/30 11:54:41;;;;;;;20.48;4.40;;;;;;;11.67;46.96;103006.13;5014306;28;20033;-60
2022/01/30 11:57:18;;;;;;;22.95;4.38;;;;;;;12.10;48.45;103003.47;5014426;28;20044;-60
2022/01/30 11:59:45;;;;;;;18.50;3.97;;;;;;;12.34;46.29;102995.56;5014143;28;20108;-61
2022/01/30 12:02:29;;;;;;;16.60;3.67;;;;;;;12.19;45.47;103001.16;5014227;28;20105;-61
2022/01/30 12:04:58;;;;;;;20.67;4.28;;;;;;;12.00;46.49;102999.56;5014310;28;20033;-60
2022/01/30 12:07:40;;;;;;;22.10;4.28;;;;;;;12.12;48.22;103000.88;5014193;28;20494;-60
2022/01/30 12:10:20;;;;;;;18.30;3.70;;;;;;;12.44;47.89;103000.38;5013984;28;20494;-60
2022/01/30 12:12:47;;;;;;;18.55;3.75;;;;;;;12.62;45.43;102989.53;5014098;28;20026;-60
2022/01/30 12:15:42;;;;;;;18.35;4.30;;;;;;;12.62;46.89;102988.63;5014070;28;20029;-61
2022/01/30 12:18:13;;;;;;;14.63;3.55;;;;;;;12.69;45.78;102985.38;5014386;28;20365;-60
2022/01/30 12:20:59;;;;;;;16.45;3.80;;;;;;;13.08;46.75;102988.53;5013908;28;20030;-61
2022/01/30 12:23:30;;;;;;;21.63;3.80;;;;;;;13.03;43.96;102987.47;5013986;28;20041;-60
2022/01/30 12:26:05;;;;;;;19.17;4.72;;;;;;;13.21;45.05;102992.50;5013907;28;20133;-60
2022/01/30 12:28:42;;;;;;;14.82;3.63;;;;;;;13.67;44.74;102986.13;5013878;28;20041;-60